createdAt,value
2019-02-18T00:01:54.373Z,13.60
2019-02-18T00:07:00.341Z,14.00
2019-02-18T00:12:07.655Z,14.87
2019-02-18T00:17:13.506Z,13.13
2019-02-18T00:22:21.812Z,12.17
2019-02-18T00:27:27.514Z,12.23
2019-02-18T00:32:38.540Z,12.47
2019-02-18T00:37:47.729Z,13.30
2019-02-18T00:42:55.374Z,11.53
2019-02-18T00:48:03.251Z,11.40
2019-02-18T00:53:09.433Z,11.60
2019-02-18T00:58:15.008Z,12.33
2019-02-18T01:03:22.404Z,10.67
2019-02-18T01:08:28.460Z,11.40
2019-02-18T01:13:37.334Z,12.93
2019-02-18T01:18:49.010Z,13.27
2019-02-18T01:23:58.899Z,13.17
2019-02-18T01:29:08.446Z,13.07
2019-02-18T01:34:14.954Z,12.70
2019-02-18T01:39:21.082Z,11.23
2019-02-18T01:44:29.097Z,10.73
2019-02-18T01:49:37.970Z,10.10
2019-02-18T01:54:44.054Z,10.60
2019-02-18T01:59:50.735Z,11.40
2019-02-18T02:04:56.874Z,9.93
2019-02-18T02:10:06.768Z,12.40
2019-02-18T02:15:24.240Z,10.77
2019-02-18T02:20:39.835Z,10.37
2019-02-18T02:25:48.781Z,10.70
2019-02-18T02:30:54.743Z,10.13
2019-02-18T02:36:05.807Z,10.63
2019-02-18T02:41:17.508Z,12.17
2019-02-18T02:46:23.386Z,10.20
2019-02-18T02:51:29.038Z,9.27
2019-02-18T02:56:37.345Z,9.83
2019-02-18T03:01:42.403Z,10.57
2019-02-18T03:06:48.631Z,10.43
2019-02-18T03:11:55.667Z,10.23
2019-02-18T03:17:01.687Z,10.33
2019-02-18T03:22:10.591Z,9.87
2019-02-18T03:27:16.635Z,9.43
2019-02-18T03:32:27.019Z,10.03
2019-02-18T03:37:36.048Z,8.97
2019-02-18T03:42:44.040Z,9.47
2019-02-18T03:47:52.502Z,10.00
2019-02-18T03:53:03.093Z,9.63
2019-02-18T03:58:10.841Z,9.53
2019-02-18T04:03:19.014Z,10.40
2019-02-18T04:08:26.149Z,10.17
2019-02-18T04:13:32.310Z,10.67
2019-02-18T04:18:39.272Z,9.70
2019-02-18T04:23:45.363Z,9.60
2019-02-18T04:28:54.194Z,9.37
2019-02-18T04:34:06.265Z,10.73
2019-02-18T04:39:14.476Z,10.47
2019-02-18T04:44:25.708Z,12.57
2019-02-18T04:49:31.506Z,10.40
2019-02-18T04:54:40.201Z,9.77
2019-02-18T04:59:49.585Z,10.27
2019-02-18T05:04:56.342Z,10.23
2019-02-18T05:10:04.646Z,9.73
2019-02-18T05:15:10.380Z,9.83
2019-02-18T05:20:19.467Z,9.87
2019-02-18T05:25:27.927Z,9.63
2019-02-18T05:30:33.675Z,9.00
2019-02-18T05:35:45.414Z,8.20
2019-02-18T05:40:52.648Z,8.60
2019-02-18T05:45:59.638Z,9.27
2019-02-18T05:51:10.299Z,8.00
2019-02-18T05:56:18.535Z,6.87
2019-02-18T06:01:24.205Z,7.37
2019-02-18T06:06:30.913Z,8.30
2019-02-18T06:11:39.806Z,7.90
2019-02-18T06:16:58.450Z,6.80
2019-02-18T06:22:10.385Z,8.20
2019-02-18T06:27:17.754Z,7.20
2019-02-18T06:32:23.833Z,6.10
2019-02-18T06:37:30.580Z,6.10
2019-02-18T06:42:38.443Z,5.83
2019-02-18T06:47:47.073Z,5.87
2019-02-18T06:52:57.545Z,5.47
2019-02-18T06:58:17.732Z,6.80
2019-02-18T07:03:32.092Z,6.67
2019-02-18T07:09:16.001Z,6.27
2019-02-18T07:14:25.465Z,6.40
2019-02-18T07:19:33.273Z,6.20
2019-02-18T07:24:39.028Z,6.47
2019-02-18T07:29:46.839Z,6.57
2019-02-18T07:34:52.827Z,6.83
2019-02-18T07:40:01.514Z,6.87
2019-02-18T07:45:10.076Z,7.07
2019-02-18T07:50:20.892Z,6.30
2019-02-18T07:55:27.641Z,6.30
2019-02-18T08:00:44.127Z,6.53
2019-02-18T08:05:50.249Z,6.50
2019-02-18T08:11:05.317Z,8.93
2019-02-18T08:16:13.140Z,6.83
2019-02-18T08:21:21.452Z,7.60
2019-02-18T08:26:28.244Z,6.90
2019-02-18T08:31:38.344Z,8.30
2019-02-18T08:36:43.995Z,8.20
2019-02-18T08:41:56.302Z,9.50
2019-02-18T08:47:07.290Z,8.47
2019-02-18T08:52:14.172Z,9.03
2019-02-18T08:57:22.910Z,9.47
2019-02-18T09:02:28.922Z,11.37
2019-02-18T09:07:39.970Z,10.23
2019-02-18T09:12:47.440Z,9.90
2019-02-18T09:17:56.064Z,10.90
2019-02-18T09:23:20.748Z,10.43
2019-02-18T09:28:32.691Z,10.20
2019-02-18T09:33:38.481Z,9.73
2019-02-18T09:38:45.717Z,13.73
2019-02-18T09:43:54.440Z,15.47
2019-02-18T09:49:03.645Z,16.57
2019-02-18T09:54:11.104Z,17.30
2019-02-18T09:59:17.457Z,23.40
2019-02-18T10:04:24.803Z,13.90
2019-02-18T10:09:30.417Z,31.40
2019-02-18T10:14:36.222Z,39.17
2019-02-18T10:19:43.249Z,33.10
2019-02-18T10:24:51.685Z,27.87
2019-02-18T10:30:05.126Z,26.00
2019-02-18T10:35:11.838Z,24.27
2019-02-18T10:40:18.815Z,32.43
2019-02-18T10:45:25.266Z,30.40
2019-02-18T10:50:34.060Z,30.90
2019-02-18T10:55:43.879Z,27.87
2019-02-18T11:00:54.502Z,25.43
2019-02-18T11:06:03.717Z,28.53
2019-02-18T11:11:17.065Z,29.53
2019-02-18T11:16:20.641Z,27.13
2019-02-18T11:21:26.443Z,25.43
2019-02-18T11:26:34.490Z,41.27
2019-02-18T11:31:43.950Z,27.87
2019-02-18T11:36:51.357Z,27.60
2019-02-18T11:42:08.562Z,43.50
2019-02-18T11:47:09.583Z,24.77
2019-02-18T11:52:17.327Z,24.33
2019-02-18T11:57:26.182Z,19.67
2019-02-18T12:02:38.291Z,23.30
2019-02-18T12:07:45.575Z,23.57
2019-02-18T12:12:56.904Z,25.10
2019-02-18T12:18:08.555Z,26.40
2019-02-18T12:23:14.247Z,28.70
2019-02-18T12:28:27.534Z,26.90
2019-02-18T12:33:36.096Z,27.67
2019-02-18T12:38:43.982Z,26.57
2019-02-18T12:43:52.412Z,24.47
2019-02-18T12:49:00.371Z,25.87
2019-02-18T12:54:11.135Z,27.33
2019-02-18T12:59:17.942Z,27.47
2019-02-18T13:04:23.623Z,25.33
2019-02-18T13:09:33.559Z,26.90
2019-02-18T13:14:42.305Z,22.83
2019-02-18T13:19:50.422Z,23.20
2019-02-18T13:25:00.676Z,23.17
2019-02-18T13:30:16.431Z,22.37
2019-02-18T13:35:23.824Z,22.43
2019-02-18T13:40:34.585Z,22.77
2019-02-18T13:45:44.916Z,25.67
2019-02-18T13:50:52.225Z,24.93
2019-02-18T13:56:01.108Z,26.77
2019-02-18T14:01:10.393Z,33.60
2019-02-18T14:06:19.446Z,32.50
2019-02-18T14:11:25.429Z,31.43
2019-02-18T14:16:32.863Z,32.60
2019-02-18T14:21:43.000Z,29.67
2019-02-18T14:26:51.536Z,31.63
2019-02-18T14:32:00.936Z,30.40
2019-02-18T14:37:09.615Z,33.07
2019-02-18T14:42:24.330Z,31.37
2019-02-18T14:47:24.900Z,29.70
2019-02-18T14:52:31.899Z,30.23
2019-02-18T14:57:40.715Z,27.30
2019-02-18T15:02:47.759Z,29.07
2019-02-18T15:07:53.870Z,28.20
2019-02-18T15:13:06.209Z,29.50
2019-02-18T15:18:14.373Z,27.40
2019-02-18T15:23:25.301Z,28.63
2019-02-18T15:28:37.006Z,27.67
2019-02-18T15:33:42.663Z,27.60
2019-02-18T15:38:58.447Z,26.10
2019-02-18T15:44:07.350Z,27.20
2019-02-18T15:49:18.116Z,28.30
2019-02-18T15:54:26.863Z,24.70
2019-02-18T15:59:32.525Z,24.50
2019-02-18T16:04:42.519Z,26.73
2019-02-18T16:09:50.723Z,24.33
2019-02-18T16:14:58.131Z,25.27
2019-02-18T16:20:09.227Z,25.33
2019-02-18T16:25:25.344Z,25.77
2019-02-18T16:30:31.185Z,24.33
2019-02-18T16:35:47.038Z,25.87
2019-02-18T16:40:53.563Z,23.80
2019-02-18T16:46:01.577Z,29.57
2019-02-18T16:51:09.351Z,22.03
2019-02-18T16:56:26.456Z,22.43
2019-02-18T17:01:34.189Z,20.30
2019-02-18T17:06:42.105Z,21.43
2019-02-18T17:11:53.368Z,24.33
2019-02-18T17:17:01.236Z,30.17
2019-02-18T17:22:09.264Z,25.90
2019-02-18T17:27:15.202Z,24.60
2019-02-18T17:32:24.824Z,24.90
2019-02-18T17:37:31.100Z,26.50
2019-02-18T17:42:42.488Z,20.80
2019-02-18T17:47:50.575Z,22.27
2019-02-18T17:53:02.689Z,21.10
2019-02-18T17:58:12.711Z,23.20
2019-02-18T18:03:25.502Z,13.33
2019-02-18T18:08:37.344Z,15.10
2019-02-18T18:13:47.061Z,19.50
2019-02-18T18:18:54.962Z,20.13
2019-02-18T18:24:00.923Z,11.50
2019-02-18T18:29:12.388Z,10.47
2019-02-18T18:34:21.627Z,8.37
2019-02-18T18:39:27.910Z,8.53
2019-02-18T18:44:39.574Z,9.30
2019-02-18T18:49:48.990Z,10.40
2019-02-18T18:54:56.093Z,10.77
2019-02-18T19:00:10.990Z,8.07
2019-02-18T19:05:19.058Z,7.70
2019-02-18T19:10:40.595Z,8.43
2019-02-18T19:15:50.315Z,8.60
2019-02-18T19:20:59.142Z,8.80
2019-02-18T19:26:08.916Z,7.93
2019-02-18T19:31:16.940Z,7.80
2019-02-18T19:36:25.300Z,9.47
2019-02-18T19:41:38.890Z,9.40
2019-02-18T19:46:46.821Z,9.30
2019-02-18T19:52:10.471Z,8.00
2019-02-18T19:57:23.958Z,9.40
2019-02-18T20:02:39.677Z,16.20
2019-02-18T20:07:50.621Z,16.07
2019-02-18T20:18:10.552Z,9.80
2019-02-18T20:23:26.659Z,13.60
2019-02-18T20:28:44.507Z,11.87
2019-02-18T20:33:54.389Z,8.00
2019-02-18T20:39:00.872Z,16.70
2019-02-18T20:44:15.388Z,20.93
2019-02-18T20:49:28.534Z,17.07
2019-02-18T20:54:39.861Z,18.97
2019-02-18T20:59:53.540Z,19.33
2019-02-18T21:05:05.764Z,18.40
2019-02-18T21:10:13.357Z,8.57
2019-02-18T21:15:32.444Z,13.43
2019-02-18T21:20:46.811Z,11.00
2019-02-18T21:25:56.947Z,17.57
2019-02-18T21:31:09.711Z,18.60
2019-02-18T21:36:22.534Z,15.77
2019-02-18T21:41:29.341Z,15.50
2019-02-18T21:46:46.023Z,12.70
2019-02-18T21:51:52.128Z,10.13
2019-02-18T21:56:58.142Z,11.70
2019-02-18T22:02:05.620Z,14.40
2019-02-18T22:07:18.824Z,13.03
2019-02-18T22:12:24.662Z,12.10
2019-02-18T22:17:30.460Z,11.80
2019-02-18T22:22:36.476Z,11.83
2019-02-18T22:27:45.270Z,12.73
2019-02-18T22:32:53.725Z,13.40
2019-02-18T22:37:59.358Z,13.97
2019-02-18T22:43:06.813Z,13.77
2019-02-18T22:48:13.680Z,13.23
2019-02-18T22:53:21.703Z,12.90
2019-02-18T22:58:30.816Z,11.70
2019-02-18T23:03:40.201Z,12.10
2019-02-18T23:08:47.511Z,11.50
2019-02-18T23:13:54.669Z,11.90
2019-02-18T23:19:00.257Z,13.20
2019-02-18T23:24:06.357Z,12.27
2019-02-18T23:29:13.017Z,12.97
2019-02-18T23:34:18.761Z,11.83
2019-02-18T23:39:24.525Z,11.67
2019-02-18T23:44:33.259Z,14.10
2019-02-18T23:56:13.393Z,13.10
